sensor_id;sensor_type;location;lat;lon;timestamp;temperature;humidity
40323;DHT22;26030;51.164;17.100;2023-05-07T00:04:16;23.70;52.20
40323;DHT22;26030;51.164;17.100;2023-05-07T00:09:21;23.60;52.30
40323;DHT22;26030;51.164;17.100;2023-05-07T00:14:25;23.50;52.40
40323;DHT22;26030;51.164;17.100;2023-05-07T00:19:29;23.50;52.40
40323;DHT22;26030;51.164;17.100;2023-05-07T00:24:33;23.50;52.50
40323;DHT22;26030;51.164;17.100;2023-05-07T00:29:38;23.40;52.40
40323;DHT22;26030;51.164;17.100;2023-05-07T00:34:43;23.40;52.50
40323;DHT22;26030;51.164;17.100;2023-05-07T00:39:47;23.30;52.60
40323;DHT22;26030;51.164;17.100;2023-05-07T00:44:52;23.30;52.70
40323;DHT22;26030;51.164;17.100;2023-05-07T00:49:56;23.30;53.00
40323;DHT22;26030;51.164;17.100;2023-05-07T00:55:02;23.10;52.80
40323;DHT22;26030;51.164;17.100;2023-05-07T01:00:09;23.10;52.80
40323;DHT22;26030;51.164;17.100;2023-05-07T01:05:17;23.00;52.80
40323;DHT22;26030;51.164;17.100;2023-05-07T01:10:24;23.00;52.90
40323;DHT22;26030;51.164;17.100;2023-05-07T01:15:29;23.10;53.10
40323;DHT22;26030;51.164;17.100;2023-05-07T01:20:34;23.30;52.30
40323;DHT22;26030;51.164;17.100;2023-05-07T01:25:38;23.60;51.60
40323;DHT22;26030;51.164;17.100;2023-05-07T01:30:42;23.80;51.10
40323;DHT22;26030;51.164;17.100;2023-05-07T01:35:53;23.90;50.70
40323;DHT22;26030;51.164;17.100;2023-05-07T01:40:57;24.00;50.70
40323;DHT22;26030;51.164;17.100;2023-05-07T01:46:02;24.10;50.70
40323;DHT22;26030;51.164;17.100;2023-05-07T01:51:07;24.20;50.50
40323;DHT22;26030;51.164;17.100;2023-05-07T01:56:12;24.30;50.10
40323;DHT22;26030;51.164;17.100;2023-05-07T02:01:17;24.40;49.80
40323;DHT22;26030;51.164;17.100;2023-05-07T02:06:22;24.50;49.70
40323;DHT22;26030;51.164;17.100;2023-05-07T02:11:30;24.50;49.50
40323;DHT22;26030;51.164;17.100;2023-05-07T02:16:34;24.50;49.40
40323;DHT22;26030;51.164;17.100;2023-05-07T02:21:38;24.60;49.30
40323;DHT22;26030;51.164;17.100;2023-05-07T02:26:43;24.70;49.40
40323;DHT22;26030;51.164;17.100;2023-05-07T02:31:47;24.70;49.20
40323;DHT22;26030;51.164;17.100;2023-05-07T02:36:56;24.80;49.20
40323;DHT22;26030;51.164;17.100;2023-05-07T02:42:01;24.80;49.40
40323;DHT22;26030;51.164;17.100;2023-05-07T02:47:06;24.90;49.10
40323;DHT22;26030;51.164;17.100;2023-05-07T02:52:13;24.90;49.30
40323;DHT22;26030;51.164;17.100;2023-05-07T02:57:17;24.80;49.00
40323;DHT22;26030;51.164;17.100;2023-05-07T03:02:22;24.70;49.20
40323;DHT22;26030;51.164;17.100;2023-05-07T03:07:26;24.60;50.00
40323;DHT22;26030;51.164;17.100;2023-05-07T03:12:30;24.60;49.60
40323;DHT22;26030;51.164;17.100;2023-05-07T03:17:35;24.50;49.60
40323;DHT22;26030;51.164;17.100;2023-05-07T03:22:39;24.50;49.70
40323;DHT22;26030;51.164;17.100;2023-05-07T03:27:44;24.30;49.80
40323;DHT22;26030;51.164;17.100;2023-05-07T03:32:49;24.20;50.00
40323;DHT22;26030;51.164;17.100;2023-05-07T03:37:54;24.20;50.20
40323;DHT22;26030;51.164;17.100;2023-05-07T03:42:59;24.10;50.20
40323;DHT22;26030;51.164;17.100;2023-05-07T03:48:05;24.00;50.60
40323;DHT22;26030;51.164;17.100;2023-05-07T03:53:09;24.00;50.40
40323;DHT22;26030;51.164;17.100;2023-05-07T03:58:15;23.90;50.40
40323;DHT22;26030;51.164;17.100;2023-05-07T04:03:20;23.90;50.50
40323;DHT22;26030;51.164;17.100;2023-05-07T04:08:24;23.80;50.60
40323;DHT22;26030;51.164;17.100;2023-05-07T04:13:30;23.70;50.80
40323;DHT22;26030;51.164;17.100;2023-05-07T04:18:35;23.70;50.80
40323;DHT22;26030;51.164;17.100;2023-05-07T04:23:40;23.60;50.90
40323;DHT22;26030;51.164;17.100;2023-05-07T04:28:45;23.60;51.40
40323;DHT22;26030;51.164;17.100;2023-05-07T04:33:50;23.60;51.40
40323;DHT22;26030;51.164;17.100;2023-05-07T04:38:55;23.50;50.90
40323;DHT22;26030;51.164;17.100;2023-05-07T04:43:59;23.50;50.90
40323;DHT22;26030;51.164;17.100;2023-05-07T04:49:05;23.40;51.30
40323;DHT22;26030;51.164;17.100;2023-05-07T04:54:10;23.40;51.20
40323;DHT22;26030;51.164;17.100;2023-05-07T04:59:14;23.40;51.10
40323;DHT22;26030;51.164;17.100;2023-05-07T05:04:18;23.40;51.30
40323;DHT22;26030;51.164;17.100;2023-05-07T05:09:23;23.30;51.10
40323;DHT22;26030;51.164;17.100;2023-05-07T05:14:27;23.30;51.90
40323;DHT22;26030;51.164;17.100;2023-05-07T05:19:32;23.30;51.60
40323;DHT22;26030;51.164;17.100;2023-05-07T05:24:37;23.20;51.30
40323;DHT22;26030;51.164;17.100;2023-05-07T05:29:41;23.10;51.70
40323;DHT22;26030;51.164;17.100;2023-05-07T05:34:47;23.30;50.90
40323;DHT22;26030;51.164;17.100;2023-05-07T05:39:51;23.70;50.10
40323;DHT22;26030;51.164;17.100;2023-05-07T05:44:58;23.90;49.50
40323;DHT22;26030;51.164;17.100;2023-05-07T05:50:03;24.00;49.30
40323;DHT22;26030;51.164;17.100;2023-05-07T05:55:08;24.20;49.10
40323;DHT22;26030;51.164;17.100;2023-05-07T06:00:13;24.30;48.90
40323;DHT22;26030;51.164;17.100;2023-05-07T06:05:20;24.30;48.80
40323;DHT22;26030;51.164;17.100;2023-05-07T06:10:27;24.40;48.60
40323;DHT22;26030;51.164;17.100;2023-05-07T06:15:31;24.50;48.30
40323;DHT22;26030;51.164;17.100;2023-05-07T06:20:39;24.60;48.10
40323;DHT22;26030;51.164;17.100;2023-05-07T06:25:50;24.60;47.90
40323;DHT22;26030;51.164;17.100;2023-05-07T06:31:10;24.70;47.80
40323;DHT22;26030;51.164;17.100;2023-05-07T06:36:39;24.70;47.90
40323;DHT22;26030;51.164;17.100;2023-05-07T06:41:51;24.70;48.00
40323;DHT22;26030;51.164;17.100;2023-05-07T06:47:02;24.60;48.20
40323;DHT22;26030;51.164;17.100;2023-05-07T06:52:06;24.60;48.30
40323;DHT22;26030;51.164;17.100;2023-05-07T06:57:11;24.50;48.90
40323;DHT22;26030;51.164;17.100;2023-05-07T07:02:15;24.50;48.50
40323;DHT22;26030;51.164;17.100;2023-05-07T07:07:21;24.50;48.40
40323;DHT22;26030;51.164;17.100;2023-05-07T07:12:26;24.60;48.30
40323;DHT22;26030;51.164;17.100;2023-05-07T07:17:32;24.70;48.10
40323;DHT22;26030;51.164;17.100;2023-05-07T07:22:37;24.70;48.10
40323;DHT22;26030;51.164;17.100;2023-05-07T07:27:42;24.60;48.30
40323;DHT22;26030;51.164;17.100;2023-05-07T07:32:47;24.50;48.50
40323;DHT22;26030;51.164;17.100;2023-05-07T07:37:52;24.50;48.60
40323;DHT22;26030;51.164;17.100;2023-05-07T07:42:58;24.50;49.00
40323;DHT22;26030;51.164;17.100;2023-05-07T07:48:04;24.40;48.60
40323;DHT22;26030;51.164;17.100;2023-05-07T07:53:10;24.40;48.60
40323;DHT22;26030;51.164;17.100;2023-05-07T07:58:14;24.30;48.80
40323;DHT22;26030;51.164;17.100;2023-05-07T08:03:19;24.20;48.90
40323;DHT22;26030;51.164;17.100;2023-05-07T08:08:26;24.20;49.00
40323;DHT22;26030;51.164;17.100;2023-05-07T08:13:31;24.10;48.90
40323;DHT22;26030;51.164;17.100;2023-05-07T08:18:35;24.10;49.00
40323;DHT22;26030;51.164;17.100;2023-05-07T08:23:39;24.00;49.00
40323;DHT22;26030;51.164;17.100;2023-05-07T08:28:45;23.90;49.30
40323;DHT22;26030;51.164;17.100;2023-05-07T08:33:49;23.90;49.30
40323;DHT22;26030;51.164;17.100;2023-05-07T08:38:54;23.90;49.40
40323;DHT22;26030;51.164;17.100;2023-05-07T08:43:58;23.80;49.40
40323;DHT22;26030;51.164;17.100;2023-05-07T08:49:04;23.80;49.10
40323;DHT22;26030;51.164;17.100;2023-05-07T08:54:08;23.70;49.40
40323;DHT22;26030;51.164;17.100;2023-05-07T08:59:15;23.70;49.50
40323;DHT22;26030;51.164;17.100;2023-05-07T09:04:19;23.70;49.60
40323;DHT22;26030;51.164;17.100;2023-05-07T09:09:24;23.60;49.60
40323;DHT22;26030;51.164;17.100;2023-05-07T09:14:29;23.60;49.60
40323;DHT22;26030;51.164;17.100;2023-05-07T09:19:36;23.60;49.50
40323;DHT22;26030;51.164;17.100;2023-05-07T09:24:46;23.60;49.60
40323;DHT22;26030;51.164;17.100;2023-05-07T09:29:56;23.50;49.50
40323;DHT22;26030;51.164;17.100;2023-05-07T09:35:01;23.50;49.60
40323;DHT22;26030;51.164;17.100;2023-05-07T09:40:07;23.50;49.80
40323;DHT22;26030;51.164;17.100;2023-05-07T09:45:13;23.40;49.80
40323;DHT22;26030;51.164;17.100;2023-05-07T09:50:17;23.40;49.70
40323;DHT22;26030;51.164;17.100;2023-05-07T09:55:23;23.40;49.80
40323;DHT22;26030;51.164;17.100;2023-05-07T10:00:28;23.40;49.70
40323;DHT22;26030;51.164;17.100;2023-05-07T10:05:36;23.40;49.80
40323;DHT22;26030;51.164;17.100;2023-05-07T10:10:42;23.40;49.80
40323;DHT22;26030;51.164;17.100;2023-05-07T10:15:49;23.30;49.80
40323;DHT22;26030;51.164;17.100;2023-05-07T10:20:55;23.40;49.80
40323;DHT22;26030;51.164;17.100;2023-05-07T10:26:12;23.30;49.40
40323;DHT22;26030;51.164;17.100;2023-05-07T10:36:41;23.30;49.90
40323;DHT22;26030;51.164;17.100;2023-05-07T10:41:47;23.30;49.90
40323;DHT22;26030;51.164;17.100;2023-05-07T10:47:26;23.30;50.20
40323;DHT22;26030;51.164;17.100;2023-05-07T10:52:25;23.30;50.20
40323;DHT22;26030;51.164;17.100;2023-05-07T10:57:35;23.50;49.50
40323;DHT22;26030;51.164;17.100;2023-05-07T11:08:13;23.90;48.30
40323;DHT22;26030;51.164;17.100;2023-05-07T11:13:49;24.10;48.10
40323;DHT22;26030;51.164;17.100;2023-05-07T11:19:14;24.20;47.90
40323;DHT22;26030;51.164;17.100;2023-05-07T11:24:22;24.30;47.60
40323;DHT22;26030;51.164;17.100;2023-05-07T11:29:34;24.40;47.40
40323;DHT22;26030;51.164;17.100;2023-05-07T11:34:42;24.50;47.20
40323;DHT22;26030;51.164;17.100;2023-05-07T11:39:50;24.60;47.10
40323;DHT22;26030;51.164;17.100;2023-05-07T11:45:01;24.70;47.00
40323;DHT22;26030;51.164;17.100;2023-05-07T11:50:06;24.80;46.90
40323;DHT22;26030;51.164;17.100;2023-05-07T11:55:11;24.90;46.80
40323;DHT22;26030;51.164;17.100;2023-05-07T12:00:16;24.90;46.80
40323;DHT22;26030;51.164;17.100;2023-05-07T12:05:20;24.90;47.10
40323;DHT22;26030;51.164;17.100;2023-05-07T12:10:25;24.70;47.50
40323;DHT22;26030;51.164;17.100;2023-05-07T12:15:29;24.70;47.30
40323;DHT22;26030;51.164;17.100;2023-05-07T12:20:34;24.60;47.50
40323;DHT22;26030;51.164;17.100;2023-05-07T12:25:39;24.50;47.90
40323;DHT22;26030;51.164;17.100;2023-05-07T12:30:50;24.50;47.80
40323;DHT22;26030;51.164;17.100;2023-05-07T12:35:56;24.40;48.10
40323;DHT22;26030;51.164;17.100;2023-05-07T12:41:00;24.50;47.70
40323;DHT22;26030;51.164;17.100;2023-05-07T12:46:06;24.40;47.80
40323;DHT22;26030;51.164;17.100;2023-05-07T12:51:11;24.30;48.00
40323;DHT22;26030;51.164;17.100;2023-05-07T12:56:17;24.20;48.00
40323;DHT22;26030;51.164;17.100;2023-05-07T13:01:21;24.20;48.10
40323;DHT22;26030;51.164;17.100;2023-05-07T13:06:27;24.20;48.10
40323;DHT22;26030;51.164;17.100;2023-05-07T13:11:31;24.10;48.00
40323;DHT22;26030;51.164;17.100;2023-05-07T13:16:36;24.00;48.20
40323;DHT22;26030;51.164;17.100;2023-05-07T13:21:40;24.00;48.20
40323;DHT22;26030;51.164;17.100;2023-05-07T13:26:44;24.00;48.30
40323;DHT22;26030;51.164;17.100;2023-05-07T13:31:48;23.90;48.40
40323;DHT22;26030;51.164;17.100;2023-05-07T13:36:53;23.90;48.40
40323;DHT22;26030;51.164;17.100;2023-05-07T13:41:57;23.80;48.40
40323;DHT22;26030;51.164;17.100;2023-05-07T13:47:01;23.80;48.50
40323;DHT22;26030;51.164;17.100;2023-05-07T13:52:05;23.70;48.60
40323;DHT22;26030;51.164;17.100;2023-05-07T13:57:10;23.70;48.60
40323;DHT22;26030;51.164;17.100;2023-05-07T14:02:14;23.70;48.60
40323;DHT22;26030;51.164;17.100;2023-05-07T14:07:19;23.60;48.70
40323;DHT22;26030;51.164;17.100;2023-05-07T14:12:24;23.60;48.80
40323;DHT22;26030;51.164;17.100;2023-05-07T14:17:28;23.60;48.80
40323;DHT22;26030;51.164;17.100;2023-05-07T14:22:33;23.60;49.20
40323;DHT22;26030;51.164;17.100;2023-05-07T14:27:37;23.50;48.80
40323;DHT22;26030;51.164;17.100;2023-05-07T14:32:41;23.50;48.80
40323;DHT22;26030;51.164;17.100;2023-05-07T14:37:46;23.50;48.80
40323;DHT22;26030;51.164;17.100;2023-05-07T14:42:50;23.40;48.80
40323;DHT22;26030;51.164;17.100;2023-05-07T14:47:54;23.40;48.70
40323;DHT22;26030;51.164;17.100;2023-05-07T14:52:59;23.40;48.90
40323;DHT22;26030;51.164;17.100;2023-05-07T14:58:03;23.40;48.80
40323;DHT22;26030;51.164;17.100;2023-05-07T15:03:08;23.40;49.10
40323;DHT22;26030;51.164;17.100;2023-05-07T15:08:16;23.40;48.70
40323;DHT22;26030;51.164;17.100;2023-05-07T15:13:20;23.40;48.80
40323;DHT22;26030;51.164;17.100;2023-05-07T15:18:25;23.50;48.60
40323;DHT22;26030;51.164;17.100;2023-05-07T15:23:29;23.40;48.70
40323;DHT22;26030;51.164;17.100;2023-05-07T15:28:34;23.40;49.10
40323;DHT22;26030;51.164;17.100;2023-05-07T15:33:38;23.40;48.70
40323;DHT22;26030;51.164;17.100;2023-05-07T15:38:44;23.30;48.70
40323;DHT22;26030;51.164;17.100;2023-05-07T15:43:49;23.30;49.00
40323;DHT22;26030;51.164;17.100;2023-05-07T15:48:55;23.30;49.50
40323;DHT22;26030;51.164;17.100;2023-05-07T15:53:59;23.30;49.30
40323;DHT22;26030;51.164;17.100;2023-05-07T15:59:04;23.40;48.40
40323;DHT22;26030;51.164;17.100;2023-05-07T16:04:08;23.70;47.80
40323;DHT22;26030;51.164;17.100;2023-05-07T16:09:13;23.90;47.80
40323;DHT22;26030;51.164;17.100;2023-05-07T16:14:18;24.00;47.20
40323;DHT22;26030;51.164;17.100;2023-05-07T16:19:22;24.10;47.10
40323;DHT22;26030;51.164;17.100;2023-05-07T16:24:28;24.30;46.80
40323;DHT22;26030;51.164;17.100;2023-05-07T16:29:32;24.30;46.60
40323;DHT22;26030;51.164;17.100;2023-05-07T16:34:36;24.40;46.40
40323;DHT22;26030;51.164;17.100;2023-05-07T16:39:41;24.50;46.30
40323;DHT22;26030;51.164;17.100;2023-05-07T16:44:46;24.60;46.20
40323;DHT22;26030;51.164;17.100;2023-05-07T16:49:50;24.70;46.20
40323;DHT22;26030;51.164;17.100;2023-05-07T16:54:54;24.70;46.10
40323;DHT22;26030;51.164;17.100;2023-05-07T17:00:04;24.80;46.10
40323;DHT22;26030;51.164;17.100;2023-05-07T17:05:10;24.90;46.30
40323;DHT22;26030;51.164;17.100;2023-05-07T17:10:14;24.80;45.80
40323;DHT22;26030;51.164;17.100;2023-05-07T17:15:19;24.90;46.00
40323;DHT22;26030;51.164;17.100;2023-05-07T17:20:26;24.80;46.40
40323;DHT22;26030;51.164;17.100;2023-05-07T17:25:31;24.70;46.70
40323;DHT22;26030;51.164;17.100;2023-05-07T17:30:35;24.50;47.00
40323;DHT22;26030;51.164;17.100;2023-05-07T17:35:39;24.60;47.20
40323;DHT22;26030;51.164;17.100;2023-05-07T17:40:44;24.70;48.40
40323;DHT22;26030;51.164;17.100;2023-05-07T17:45:48;24.60;50.90
40323;DHT22;26030;51.164;17.100;2023-05-07T17:50:59;24.50;49.30
40323;DHT22;26030;51.164;17.100;2023-05-07T17:56:04;24.50;50.20
40323;DHT22;26030;51.164;17.100;2023-05-07T18:01:08;24.40;50.40
40323;DHT22;26030;51.164;17.100;2023-05-07T18:06:13;24.40;50.60
40323;DHT22;26030;51.164;17.100;2023-05-07T18:11:22;24.30;50.70
40323;DHT22;26030;51.164;17.100;2023-05-07T18:16:26;24.30;50.80
40323;DHT22;26030;51.164;17.100;2023-05-07T18:21:30;24.30;50.90
40323;DHT22;26030;51.164;17.100;2023-05-07T18:26:36;24.30;51.00
40323;DHT22;26030;51.164;17.100;2023-05-07T18:31:42;24.30;51.00
40323;DHT22;26030;51.164;17.100;2023-05-07T18:36:47;24.20;51.80
40323;DHT22;26030;51.164;17.100;2023-05-07T18:41:53;24.30;51.50
40323;DHT22;26030;51.164;17.100;2023-05-07T18:46:59;24.20;51.60
40323;DHT22;26030;51.164;17.100;2023-05-07T18:52:04;24.10;51.60
40323;DHT22;26030;51.164;17.100;2023-05-07T18:57:10;24.10;51.90
40323;DHT22;26030;51.164;17.100;2023-05-07T19:02:14;24.00;51.90
40323;DHT22;26030;51.164;17.100;2023-05-07T19:07:20;23.90;51.90
40323;DHT22;26030;51.164;17.100;2023-05-07T19:12:26;23.90;52.70
40323;DHT22;26030;51.164;17.100;2023-05-07T19:17:33;24.00;52.50
40323;DHT22;26030;51.164;17.100;2023-05-07T19:22:38;24.00;51.90
40323;DHT22;26030;51.164;17.100;2023-05-07T19:27:43;24.00;52.10
40323;DHT22;26030;51.164;17.100;2023-05-07T19:32:50;24.00;52.10
40323;DHT22;26030;51.164;17.100;2023-05-07T19:37:56;24.00;51.70
40323;DHT22;26030;51.164;17.100;2023-05-07T19:43:04;23.90;51.90
40323;DHT22;26030;51.164;17.100;2023-05-07T19:48:09;23.90;51.70
40323;DHT22;26030;51.164;17.100;2023-05-07T19:53:18;23.90;51.70
40323;DHT22;26030;51.164;17.100;2023-05-07T19:58:23;23.80;52.00
40323;DHT22;26030;51.164;17.100;2023-05-07T20:03:30;23.80;52.40
40323;DHT22;26030;51.164;17.100;2023-05-07T20:08:36;23.80;51.60
40323;DHT22;26030;51.164;17.100;2023-05-07T20:13:40;23.90;52.80
40323;DHT22;26030;51.164;17.100;2023-05-07T20:18:46;23.70;53.00
40323;DHT22;26030;51.164;17.100;2023-05-07T20:23:51;23.70;52.70
40323;DHT22;26030;51.164;17.100;2023-05-07T20:28:55;23.60;53.00
40323;DHT22;26030;51.164;17.100;2023-05-07T20:34:01;23.60;53.10
40323;DHT22;26030;51.164;17.100;2023-05-07T20:39:06;23.50;52.90
40323;DHT22;26030;51.164;17.100;2023-05-07T20:44:13;23.50;53.30
40323;DHT22;26030;51.164;17.100;2023-05-07T20:49:17;23.50;53.20
40323;DHT22;26030;51.164;17.100;2023-05-07T20:54:24;23.40;53.40
40323;DHT22;26030;51.164;17.100;2023-05-07T20:59:31;23.40;52.90
40323;DHT22;26030;51.164;17.100;2023-05-07T21:04:38;23.50;53.50
40323;DHT22;26030;51.164;17.100;2023-05-07T21:09:43;23.50;56.80
40323;DHT22;26030;51.164;17.100;2023-05-07T21:14:48;23.40;56.00
40323;DHT22;26030;51.164;17.100;2023-05-07T21:19:53;23.60;60.00
40323;DHT22;26030;51.164;17.100;2023-05-07T21:24:58;23.70;59.40
40323;DHT22;26030;51.164;17.100;2023-05-07T21:30:03;23.50;59.40
40323;DHT22;26030;51.164;17.100;2023-05-07T21:35:10;23.60;59.30
40323;DHT22;26030;51.164;17.100;2023-05-07T21:40:14;23.60;59.20
40323;DHT22;26030;51.164;17.100;2023-05-07T21:45:18;23.50;58.90
40323;DHT22;26030;51.164;17.100;2023-05-07T21:50:23;23.50;59.20
40323;DHT22;26030;51.164;17.100;2023-05-07T21:55:27;23.50;58.60
40323;DHT22;26030;51.164;17.100;2023-05-07T22:00:31;23.50;59.00
40323;DHT22;26030;51.164;17.100;2023-05-07T22:05:36;23.50;58.70
40323;DHT22;26030;51.164;17.100;2023-05-07T22:10:40;23.40;58.20
40323;DHT22;26030;51.164;17.100;2023-05-07T22:15:44;23.40;58.20
40323;DHT22;26030;51.164;17.100;2023-05-07T22:21:00;23.30;58.10
40323;DHT22;26030;51.164;17.100;2023-05-07T22:26:11;23.20;57.90
40323;DHT22;26030;51.164;17.100;2023-05-07T22:31:16;23.20;58.00
40323;DHT22;26030;51.164;17.100;2023-05-07T22:36:21;23.10;58.50
40323;DHT22;26030;51.164;17.100;2023-05-07T22:41:25;23.10;58.60
40323;DHT22;26030;51.164;17.100;2023-05-07T22:46:29;23.10;58.30
40323;DHT22;26030;51.164;17.100;2023-05-07T22:51:35;23.10;58.10
40323;DHT22;26030;51.164;17.100;2023-05-07T22:56:39;23.00;57.90
40323;DHT22;26030;51.164;17.100;2023-05-07T23:01:44;23.00;58.20
40323;DHT22;26030;51.164;17.100;2023-05-07T23:06:49;23.00;57.90
40323;DHT22;26030;51.164;17.100;2023-05-07T23:11:53;22.90;57.90
40323;DHT22;26030;51.164;17.100;2023-05-07T23:16:57;22.90;57.70
40323;DHT22;26030;51.164;17.100;2023-05-07T23:22:01;22.80;57.50
40323;DHT22;26030;51.164;17.100;2023-05-07T23:27:07;22.80;57.70
40323;DHT22;26030;51.164;17.100;2023-05-07T23:32:11;22.80;57.60
40323;DHT22;26030;51.164;17.100;2023-05-07T23:37:16;22.80;57.70
40323;DHT22;26030;51.164;17.100;2023-05-07T23:42:20;22.80;57.60
40323;DHT22;26030;51.164;17.100;2023-05-07T23:47:24;23.00;57.60
40323;DHT22;26030;51.164;17.100;2023-05-07T23:52:28;23.30;56.80
40323;DHT22;26030;51.164;17.100;2023-05-07T23:57:33;23.60;56.40
